Chicago, Illinois
Current Conditions -  °F | °C
As of 2:53 PM on Tuesday 27 Jan 2015 (Local Time) from KMDW Reporting Station
Few Clouds Few Clouds  
Wind Chill: -5°   Ceiling: Unl
Heat Index:   Visibility: 10mi
Dew Point: -7°   Wind: 10mph
Humidity: 59%   Direction: 20°NNE
Pressure: 30.2"   Gusts: NA
Location:  41.88°N, 87.63°W
Report Text: KMDW 272053Z 02009KT 10SM FEW030 FEW250 00/M07 A3020 RMK AO2 SLP238 T00001072 53009
Loading
Personal Weather Stations






























Interactive Weather Map New forecast layout! Learn more

10-Day Weather Forecast

Advertisements
Track Severe Weather on mobile